<?xml version="1.0" encoding="UTF-8" standalone="no" ?>
<gpx xmlns="http://www.topografix.com/GPX/1/1" xmlns:xsi="http://www.w3.org/2001/XMLSchema-instance" xsi:schemaLocation="http://www.topografix.com/GPX/1/1 http://www.topografix.com/GPX/1/1/gpx.xsd" version="1.1" creator="VisuGPX - https://www.visugpx.com">
  <metadata>
    <name>Le col du Rasoir (74 Bornes)</name>
    <desc><![CDATA[Départ du Petit Bornand
Photos et commentaires sur : www.photosrandos.fr]]></desc>
  </metadata>
  <trk>
    <name><![CDATA[track]]></name>
    <trkseg>
      <trkpt lat="45.99973" lon="6.4185">
        <ele>1028</ele>
        <time>2008-12-22T08:12:06Z</time>
      </trkpt>
      <trkpt lat="45.99985" lon="6.41827">
        <ele>1056</ele>
        <time>2008-12-22T08:16:20Z</time>
      </trkpt>
      <trkpt lat="45.99993" lon="6.41803">
        <ele>1058</ele>
        <time>2008-12-22T08:16:51Z</time>
      </trkpt>
      <trkpt lat="46.00003" lon="6.41782">
        <ele>1057</ele>
        <time>2008-12-22T08:17:11Z</time>
      </trkpt>
      <trkpt lat="46.00007" lon="6.41808">
        <ele>1066</ele>
        <time>2008-12-22T08:18:00Z</time>
      </trkpt>
      <trkpt lat="46.00002" lon="6.41833">
        <ele>1069</ele>
        <time>2008-12-22T08:18:24Z</time>
      </trkpt>
      <trkpt lat="46" lon="6.4186">
        <ele>1070</ele>
        <time>2008-12-22T08:18:49Z</time>
      </trkpt>
      <trkpt lat="45.99997" lon="6.41887">
        <ele>1078</ele>
        <time>2008-12-22T08:19:17Z</time>
      </trkpt>
      <trkpt lat="45.99995" lon="6.41913">
        <ele>1079</ele>
        <time>2008-12-22T08:19:42Z</time>
      </trkpt>
      <trkpt lat="45.99995" lon="6.4194">
        <ele>1086</ele>
        <time>2008-12-22T08:20:08Z</time>
      </trkpt>
      <trkpt lat="45.99993" lon="6.41967">
        <ele>1088</ele>
        <time>2008-12-22T08:20:31Z</time>
      </trkpt>
      <trkpt lat="45.99988" lon="6.41992">
        <ele>1093</ele>
        <time>2008-12-22T08:20:55Z</time>
      </trkpt>
      <trkpt lat="45.99975" lon="6.42012">
        <ele>1103</ele>
        <time>2008-12-22T08:21:24Z</time>
      </trkpt>
      <trkpt lat="45.9997" lon="6.4204">
        <ele>1095</ele>
        <time>2008-12-22T08:21:55Z</time>
      </trkpt>
      <trkpt lat="45.99955" lon="6.42057">
        <ele>1098</ele>
        <time>2008-12-22T08:22:23Z</time>
      </trkpt>
      <trkpt lat="45.99943" lon="6.42077">
        <ele>1099</ele>
        <time>2008-12-22T08:22:42Z</time>
      </trkpt>
      <trkpt lat="45.9993" lon="6.42097">
        <ele>1102</ele>
        <time>2008-12-22T08:23:08Z</time>
      </trkpt>
      <trkpt lat="45.99915" lon="6.42115">
        <ele>1107</ele>
        <time>2008-12-22T08:23:35Z</time>
      </trkpt>
      <trkpt lat="45.99897" lon="6.42125">
        <ele>1112</ele>
        <time>2008-12-22T08:23:57Z</time>
      </trkpt>
      <trkpt lat="45.9988" lon="6.4214">
        <ele>1119</ele>
        <time>2008-12-22T08:24:26Z</time>
      </trkpt>
      <trkpt lat="45.99867" lon="6.4216">
        <ele>1122</ele>
        <time>2008-12-22T08:24:54Z</time>
      </trkpt>
      <trkpt lat="45.99852" lon="6.42175">
        <ele>1114</ele>
        <time>2008-12-22T08:25:09Z</time>
      </trkpt>
      <trkpt lat="45.99845" lon="6.422">
        <ele>1115</ele>
        <time>2008-12-22T08:25:35Z</time>
      </trkpt>
      <trkpt lat="45.99862" lon="6.4219">
        <ele>1124</ele>
        <time>2008-12-22T08:26:10Z</time>
      </trkpt>
      <trkpt lat="45.9988" lon="6.42188">
        <ele>1129</ele>
        <time>2008-12-22T08:26:32Z</time>
      </trkpt>
      <trkpt lat="45.99895" lon="6.42205">
        <ele>1135</ele>
        <time>2008-12-22T08:26:59Z</time>
      </trkpt>
      <trkpt lat="45.99913" lon="6.42215">
        <ele>1133</ele>
        <time>2008-12-22T08:27:17Z</time>
      </trkpt>
      <trkpt lat="45.99932" lon="6.42207">
        <ele>1132</ele>
        <time>2008-12-22T08:27:40Z</time>
      </trkpt>
      <trkpt lat="45.9995" lon="6.42205">
        <ele>1138</ele>
        <time>2008-12-22T08:28:08Z</time>
      </trkpt>
      <trkpt lat="45.9994" lon="6.42228">
        <ele>1146</ele>
        <time>2008-12-22T08:28:35Z</time>
      </trkpt>
      <trkpt lat="45.99925" lon="6.42243">
        <ele>1136</ele>
        <time>2008-12-22T08:29:03Z</time>
      </trkpt>
      <trkpt lat="45.9991" lon="6.4226">
        <ele>1138</ele>
        <time>2008-12-22T08:29:26Z</time>
      </trkpt>
      <trkpt lat="45.9989" lon="6.42267">
        <ele>1141</ele>
        <time>2008-12-22T08:29:46Z</time>
      </trkpt>
      <trkpt lat="45.99872" lon="6.42272">
        <ele>1144</ele>
        <time>2008-12-22T08:30:05Z</time>
      </trkpt>
      <trkpt lat="45.99855" lon="6.42285">
        <ele>1149</ele>
        <time>2008-12-22T08:30:33Z</time>
      </trkpt>
      <trkpt lat="45.9984" lon="6.42302">
        <ele>1154</ele>
        <time>2008-12-22T08:30:56Z</time>
      </trkpt>
      <trkpt lat="45.99835" lon="6.42327">
        <ele>1149</ele>
        <time>2008-12-22T08:31:18Z</time>
      </trkpt>
      <trkpt lat="45.99853" lon="6.4232">
        <ele>1150</ele>
        <time>2008-12-22T08:31:45Z</time>
      </trkpt>
      <trkpt lat="45.99848" lon="6.42345">
        <ele>1156</ele>
        <time>2008-12-22T08:32:36Z</time>
      </trkpt>
      <trkpt lat="45.99837" lon="6.42365">
        <ele>1160</ele>
        <time>2008-12-22T08:32:58Z</time>
      </trkpt>
      <trkpt lat="45.99823" lon="6.42383">
        <ele>1162</ele>
        <time>2008-12-22T08:33:23Z</time>
      </trkpt>
      <trkpt lat="45.99842" lon="6.4239">
        <ele>1162</ele>
        <time>2008-12-22T08:33:49Z</time>
      </trkpt>
      <trkpt lat="45.99857" lon="6.42375">
        <ele>1167</ele>
        <time>2008-12-22T08:34:12Z</time>
      </trkpt>
      <trkpt lat="45.99858" lon="6.42402">
        <ele>1169</ele>
        <time>2008-12-22T08:34:55Z</time>
      </trkpt>
      <trkpt lat="45.9987" lon="6.42422">
        <ele>1172</ele>
        <time>2008-12-22T08:35:42Z</time>
      </trkpt>
      <trkpt lat="45.99872" lon="6.42448">
        <ele>1175</ele>
        <time>2008-12-22T08:36:35Z</time>
      </trkpt>
      <trkpt lat="45.99887" lon="6.42465">
        <ele>1178</ele>
        <time>2008-12-22T08:37:18Z</time>
      </trkpt>
      <trkpt lat="45.99898" lon="6.42485">
        <ele>1182</ele>
        <time>2008-12-22T08:38:00Z</time>
      </trkpt>
      <trkpt lat="45.9991" lon="6.42505">
        <ele>1191</ele>
        <time>2008-12-22T08:40:23Z</time>
      </trkpt>
      <trkpt lat="45.99928" lon="6.4251">
        <ele>1201</ele>
        <time>2008-12-22T08:40:48Z</time>
      </trkpt>
      <trkpt lat="45.99922" lon="6.42535">
        <ele>1209</ele>
        <time>2008-12-22T08:41:47Z</time>
      </trkpt>
      <trkpt lat="45.99903" lon="6.42537">
        <ele>1210</ele>
        <time>2008-12-22T08:42:12Z</time>
      </trkpt>
      <trkpt lat="45.99883" lon="6.42538">
        <ele>1212</ele>
        <time>2008-12-22T08:42:36Z</time>
      </trkpt>
      <trkpt lat="45.99865" lon="6.4254">
        <ele>1213</ele>
        <time>2008-12-22T08:43:01Z</time>
      </trkpt>
      <trkpt lat="45.99875" lon="6.42562">
        <ele>1225</ele>
        <time>2008-12-22T08:43:58Z</time>
      </trkpt>
      <trkpt lat="45.99892" lon="6.42575">
        <ele>1230</ele>
        <time>2008-12-22T08:44:24Z</time>
      </trkpt>
      <trkpt lat="45.9991" lon="6.42582">
        <ele>1235</ele>
        <time>2008-12-22T08:44:43Z</time>
      </trkpt>
      <trkpt lat="45.99893" lon="6.42595">
        <ele>1244</ele>
        <time>2008-12-22T08:45:40Z</time>
      </trkpt>
      <trkpt lat="45.99875" lon="6.42597">
        <ele>1245</ele>
        <time>2008-12-22T08:46:06Z</time>
      </trkpt>
      <trkpt lat="45.99885" lon="6.42618">
        <ele>1252</ele>
        <time>2008-12-22T08:46:51Z</time>
      </trkpt>
      <trkpt lat="45.99903" lon="6.42627">
        <ele>1256</ele>
        <time>2008-12-22T08:47:16Z</time>
      </trkpt>
      <trkpt lat="45.99922" lon="6.42633">
        <ele>1261</ele>
        <time>2008-12-22T08:47:38Z</time>
      </trkpt>
      <trkpt lat="45.9994" lon="6.42632">
        <ele>1254</ele>
        <time>2008-12-22T08:48:05Z</time>
      </trkpt>
      <trkpt lat="45.99953" lon="6.42613">
        <ele>1252</ele>
        <time>2008-12-22T08:48:27Z</time>
      </trkpt>
      <trkpt lat="45.99972" lon="6.42605">
        <ele>1253</ele>
        <time>2008-12-22T08:48:48Z</time>
      </trkpt>
      <trkpt lat="45.9999" lon="6.42602">
        <ele>1252</ele>
        <time>2008-12-22T08:49:14Z</time>
      </trkpt>
      <trkpt lat="46.00008" lon="6.42593">
        <ele>1251</ele>
        <time>2008-12-22T08:49:37Z</time>
      </trkpt>
      <trkpt lat="46.00027" lon="6.42583">
        <ele>1258</ele>
        <time>2008-12-22T08:49:59Z</time>
      </trkpt>
      <trkpt lat="46.00043" lon="6.4257">
        <ele>1262</ele>
        <time>2008-12-22T08:50:22Z</time>
      </trkpt>
      <trkpt lat="46.00052" lon="6.42547">
        <ele>1266</ele>
        <time>2008-12-22T08:50:42Z</time>
      </trkpt>
      <trkpt lat="46.00067" lon="6.42532">
        <ele>1268</ele>
        <time>2008-12-22T08:51:04Z</time>
      </trkpt>
      <trkpt lat="46.0008" lon="6.42513">
        <ele>1273</ele>
        <time>2008-12-22T08:51:27Z</time>
      </trkpt>
      <trkpt lat="46.00093" lon="6.42495">
        <ele>1276</ele>
        <time>2008-12-22T08:51:51Z</time>
      </trkpt>
      <trkpt lat="46.00112" lon="6.42487">
        <ele>1277</ele>
        <time>2008-12-22T08:52:14Z</time>
      </trkpt>
      <trkpt lat="46.00118" lon="6.42462">
        <ele>1278</ele>
        <time>2008-12-22T08:52:34Z</time>
      </trkpt>
      <trkpt lat="46.00135" lon="6.42445">
        <ele>1280</ele>
        <time>2008-12-22T08:52:59Z</time>
      </trkpt>
      <trkpt lat="46.00152" lon="6.42435">
        <ele>1281</ele>
        <time>2008-12-22T08:53:21Z</time>
      </trkpt>
      <trkpt lat="46.00168" lon="6.42448">
        <ele>1283</ele>
        <time>2008-12-22T08:53:56Z</time>
      </trkpt>
      <trkpt lat="46.00178" lon="6.4247">
        <ele>1285</ele>
        <time>2008-12-22T08:54:18Z</time>
      </trkpt>
      <trkpt lat="46.00188" lon="6.42495">
        <ele>1289</ele>
        <time>2008-12-22T08:54:41Z</time>
      </trkpt>
      <trkpt lat="46.00202" lon="6.42515">
        <ele>1296</ele>
        <time>2008-12-22T08:55:07Z</time>
      </trkpt>
      <trkpt lat="46.00218" lon="6.42525">
        <ele>1290</ele>
        <time>2008-12-22T08:55:34Z</time>
      </trkpt>
      <trkpt lat="46.00237" lon="6.42532">
        <ele>1285</ele>
        <time>2008-12-22T08:56:09Z</time>
      </trkpt>
      <trkpt lat="46.00252" lon="6.42548">
        <ele>1291</ele>
        <time>2008-12-22T08:56:31Z</time>
      </trkpt>
      <trkpt lat="46.0027" lon="6.42555">
        <ele>1292</ele>
        <time>2008-12-22T08:56:56Z</time>
      </trkpt>
      <trkpt lat="46.00288" lon="6.42565">
        <ele>1292</ele>
        <time>2008-12-22T08:57:18Z</time>
      </trkpt>
      <trkpt lat="46.00302" lon="6.42583">
        <ele>1299</ele>
        <time>2008-12-22T08:57:55Z</time>
      </trkpt>
      <trkpt lat="46.00305" lon="6.4261">
        <ele>1304</ele>
        <time>2008-12-22T08:58:32Z</time>
      </trkpt>
      <trkpt lat="46.00437" lon="6.42797">
        <ele>1339</ele>
        <time>2008-12-22T09:08:52Z</time>
      </trkpt>
      <trkpt lat="46.00443" lon="6.42822">
        <ele>1336</ele>
        <time>2008-12-22T09:09:24Z</time>
      </trkpt>
      <trkpt lat="46.00448" lon="6.42847">
        <ele>1336</ele>
        <time>2008-12-22T09:09:57Z</time>
      </trkpt>
      <trkpt lat="46.00453" lon="6.42872">
        <ele>1340</ele>
        <time>2008-12-22T09:10:32Z</time>
      </trkpt>
      <trkpt lat="46.0045" lon="6.42898">
        <ele>1345</ele>
        <time>2008-12-22T09:11:19Z</time>
      </trkpt>
      <trkpt lat="46.00458" lon="6.42922">
        <ele>1359</ele>
        <time>2008-12-22T09:12:10Z</time>
      </trkpt>
      <trkpt lat="46.0047" lon="6.42942">
        <ele>1365</ele>
        <time>2008-12-22T09:12:38Z</time>
      </trkpt>
      <trkpt lat="46.00485" lon="6.42957">
        <ele>1366</ele>
        <time>2008-12-22T09:13:05Z</time>
      </trkpt>
      <trkpt lat="46.00495" lon="6.4298">
        <ele>1372</ele>
        <time>2008-12-22T09:13:42Z</time>
      </trkpt>
      <trkpt lat="46.00498" lon="6.43007">
        <ele>1374</ele>
        <time>2008-12-22T09:14:17Z</time>
      </trkpt>
      <trkpt lat="46.00503" lon="6.43033">
        <ele>1384</ele>
        <time>2008-12-22T09:14:55Z</time>
      </trkpt>
      <trkpt lat="46.00515" lon="6.43055">
        <ele>1388</ele>
        <time>2008-12-22T09:15:26Z</time>
      </trkpt>
      <trkpt lat="46.0052" lon="6.43082">
        <ele>1383</ele>
        <time>2008-12-22T09:16:03Z</time>
      </trkpt>
      <trkpt lat="46.00522" lon="6.43108">
        <ele>1383</ele>
        <time>2008-12-22T09:16:41Z</time>
      </trkpt>
      <trkpt lat="46.00525" lon="6.43135">
        <ele>1383</ele>
        <time>2008-12-22T09:17:22Z</time>
      </trkpt>
      <trkpt lat="46.00532" lon="6.4316">
        <ele>1388</ele>
        <time>2008-12-22T09:18:03Z</time>
      </trkpt>
      <trkpt lat="46.00537" lon="6.43187">
        <ele>1398</ele>
        <time>2008-12-22T09:18:46Z</time>
      </trkpt>
      <trkpt lat="46.00542" lon="6.43212">
        <ele>1400</ele>
        <time>2008-12-22T09:19:23Z</time>
      </trkpt>
      <trkpt lat="46.00545" lon="6.43238">
        <ele>1406</ele>
        <time>2008-12-22T09:20:06Z</time>
      </trkpt>
      <trkpt lat="46.00555" lon="6.43262">
        <ele>1412</ele>
        <time>2008-12-22T09:20:42Z</time>
      </trkpt>
      <trkpt lat="46.00563" lon="6.43287">
        <ele>1422</ele>
        <time>2008-12-22T09:21:19Z</time>
      </trkpt>
      <trkpt lat="46.0057" lon="6.43312">
        <ele>1433</ele>
        <time>2008-12-22T09:21:56Z</time>
      </trkpt>
      <trkpt lat="46.00575" lon="6.43337">
        <ele>1440</ele>
        <time>2008-12-22T09:22:28Z</time>
      </trkpt>
      <trkpt lat="46.00575" lon="6.43363">
        <ele>1436</ele>
        <time>2008-12-22T09:22:53Z</time>
      </trkpt>
      <trkpt lat="46.00575" lon="6.43392">
        <ele>1435</ele>
        <time>2008-12-22T09:23:24Z</time>
      </trkpt>
      <trkpt lat="46.00578" lon="6.43418">
        <ele>1442</ele>
        <time>2008-12-22T09:25:16Z</time>
      </trkpt>
      <trkpt lat="46.00577" lon="6.43447">
        <ele>1443</ele>
        <time>2008-12-22T09:25:55Z</time>
      </trkpt>
      <trkpt lat="46.00578" lon="6.43473">
        <ele>1449</ele>
        <time>2008-12-22T09:26:25Z</time>
      </trkpt>
      <trkpt lat="46.0058" lon="6.435">
        <ele>1456</ele>
        <time>2008-12-22T09:26:56Z</time>
      </trkpt>
      <trkpt lat="46.00577" lon="6.43528">
        <ele>1459</ele>
        <time>2008-12-22T09:27:27Z</time>
      </trkpt>
      <trkpt lat="46.0057" lon="6.43553">
        <ele>1462</ele>
        <time>2008-12-22T09:27:55Z</time>
      </trkpt>
      <trkpt lat="46.00563" lon="6.43578">
        <ele>1466</ele>
        <time>2008-12-22T09:28:22Z</time>
      </trkpt>
      <trkpt lat="46.00558" lon="6.43603">
        <ele>1468</ele>
        <time>2008-12-22T09:28:46Z</time>
      </trkpt>
      <trkpt lat="46.00567" lon="6.43628">
        <ele>1472</ele>
        <time>2008-12-22T09:29:19Z</time>
      </trkpt>
      <trkpt lat="46.00572" lon="6.43653">
        <ele>1471</ele>
        <time>2008-12-22T09:29:52Z</time>
      </trkpt>
      <trkpt lat="46.00577" lon="6.43678">
        <ele>1477</ele>
        <time>2008-12-22T09:30:24Z</time>
      </trkpt>
      <trkpt lat="46.00583" lon="6.43705">
        <ele>1481</ele>
        <time>2008-12-22T09:30:57Z</time>
      </trkpt>
      <trkpt lat="46.00587" lon="6.43732">
        <ele>1484</ele>
        <time>2008-12-22T09:31:36Z</time>
      </trkpt>
      <trkpt lat="46.00588" lon="6.43758">
        <ele>1488</ele>
        <time>2008-12-22T09:32:10Z</time>
      </trkpt>
      <trkpt lat="46.00592" lon="6.43785">
        <ele>1492</ele>
        <time>2008-12-22T09:32:43Z</time>
      </trkpt>
      <trkpt lat="46.00592" lon="6.43812">
        <ele>1498</ele>
        <time>2008-12-22T09:33:20Z</time>
      </trkpt>
      <trkpt lat="46.00593" lon="6.4384">
        <ele>1504</ele>
        <time>2008-12-22T09:33:55Z</time>
      </trkpt>
      <trkpt lat="46.0059" lon="6.43867">
        <ele>1509</ele>
        <time>2008-12-22T09:34:29Z</time>
      </trkpt>
      <trkpt lat="46.00592" lon="6.43895">
        <ele>1510</ele>
        <time>2008-12-22T09:34:58Z</time>
      </trkpt>
      <trkpt lat="46.00598" lon="6.4392">
        <ele>1514</ele>
        <time>2008-12-22T09:35:26Z</time>
      </trkpt>
      <trkpt lat="46.00607" lon="6.43943">
        <ele>1517</ele>
        <time>2008-12-22T09:35:49Z</time>
      </trkpt>
      <trkpt lat="46.00607" lon="6.4397">
        <ele>1520</ele>
        <time>2008-12-22T09:36:15Z</time>
      </trkpt>
      <trkpt lat="46.00608" lon="6.43997">
        <ele>1523</ele>
        <time>2008-12-22T09:37:25Z</time>
      </trkpt>
      <trkpt lat="46.00605" lon="6.44023">
        <ele>1527</ele>
        <time>2008-12-22T09:37:53Z</time>
      </trkpt>
      <trkpt lat="46.00605" lon="6.4405">
        <ele>1529</ele>
        <time>2008-12-22T09:38:20Z</time>
      </trkpt>
      <trkpt lat="46.00607" lon="6.44077">
        <ele>1528</ele>
        <time>2008-12-22T09:38:59Z</time>
      </trkpt>
      <trkpt lat="46.00608" lon="6.44103">
        <ele>1533</ele>
        <time>2008-12-22T09:39:33Z</time>
      </trkpt>
      <trkpt lat="46.00607" lon="6.4413">
        <ele>1546</ele>
        <time>2008-12-22T09:40:57Z</time>
      </trkpt>
      <trkpt lat="46.00622" lon="6.44147">
        <ele>1552</ele>
        <time>2008-12-22T09:41:58Z</time>
      </trkpt>
      <trkpt lat="46.00633" lon="6.44167">
        <ele>1564</ele>
        <time>2008-12-22T09:43:08Z</time>
      </trkpt>
      <trkpt lat="46.0062" lon="6.44185">
        <ele>1570</ele>
        <time>2008-12-22T09:44:03Z</time>
      </trkpt>
      <trkpt lat="46.00635" lon="6.44202">
        <ele>1572</ele>
        <time>2008-12-22T09:44:54Z</time>
      </trkpt>
      <trkpt lat="46.00653" lon="6.44205">
        <ele>1577</ele>
        <time>2008-12-22T09:45:33Z</time>
      </trkpt>
      <trkpt lat="46.00672" lon="6.44212">
        <ele>1586</ele>
        <time>2008-12-22T09:46:10Z</time>
      </trkpt>
      <trkpt lat="46.00663" lon="6.44237">
        <ele>1591</ele>
        <time>2008-12-22T09:47:07Z</time>
      </trkpt>
      <trkpt lat="46.0067" lon="6.44262">
        <ele>1603</ele>
        <time>2008-12-22T09:48:18Z</time>
      </trkpt>
      <trkpt lat="46.00687" lon="6.44272">
        <ele>1604</ele>
        <time>2008-12-22T09:48:51Z</time>
      </trkpt>
      <trkpt lat="46.00705" lon="6.4427">
        <ele>1609</ele>
        <time>2008-12-22T09:49:21Z</time>
      </trkpt>
      <trkpt lat="46.00723" lon="6.44277">
        <ele>1612</ele>
        <time>2008-12-22T09:52:19Z</time>
      </trkpt>
      <trkpt lat="46.00727" lon="6.44303">
        <ele>1619</ele>
        <time>2008-12-22T09:53:06Z</time>
      </trkpt>
      <trkpt lat="46.00737" lon="6.44325">
        <ele>1624</ele>
        <time>2008-12-22T09:53:28Z</time>
      </trkpt>
      <trkpt lat="46.00747" lon="6.44347">
        <ele>1626</ele>
        <time>2008-12-22T09:53:51Z</time>
      </trkpt>
      <trkpt lat="46.00755" lon="6.4437">
        <ele>1628</ele>
        <time>2008-12-22T09:54:15Z</time>
      </trkpt>
      <trkpt lat="46.00765" lon="6.44392">
        <ele>1629</ele>
        <time>2008-12-22T09:54:38Z</time>
      </trkpt>
      <trkpt lat="46.00773" lon="6.44415">
        <ele>1629</ele>
        <time>2008-12-22T09:55:04Z</time>
      </trkpt>
      <trkpt lat="46.00783" lon="6.44437">
        <ele>1634</ele>
        <time>2008-12-22T09:55:35Z</time>
      </trkpt>
      <trkpt lat="46.00792" lon="6.4446">
        <ele>1638</ele>
        <time>2008-12-22T09:56:08Z</time>
      </trkpt>
      <trkpt lat="46.00802" lon="6.44482">
        <ele>1641</ele>
        <time>2008-12-22T09:56:34Z</time>
      </trkpt>
      <trkpt lat="46.00807" lon="6.44507">
        <ele>1643</ele>
        <time>2008-12-22T09:57:11Z</time>
      </trkpt>
      <trkpt lat="46.0081" lon="6.44533">
        <ele>1653</ele>
        <time>2008-12-22T09:57:50Z</time>
      </trkpt>
      <trkpt lat="46.00805" lon="6.44558">
        <ele>1660</ele>
        <time>2008-12-22T09:58:45Z</time>
      </trkpt>
      <trkpt lat="46.00807" lon="6.44587">
        <ele>1665</ele>
        <time>2008-12-22T09:59:22Z</time>
      </trkpt>
      <trkpt lat="46.00808" lon="6.44613">
        <ele>1670</ele>
        <time>2008-12-22T09:59:56Z</time>
      </trkpt>
      <trkpt lat="46.00808" lon="6.4464">
        <ele>1676</ele>
        <time>2008-12-22T10:00:37Z</time>
      </trkpt>
      <trkpt lat="46.00797" lon="6.4466">
        <ele>1683</ele>
        <time>2008-12-22T10:01:16Z</time>
      </trkpt>
      <trkpt lat="46.00778" lon="6.44668">
        <ele>1684</ele>
        <time>2008-12-22T10:01:53Z</time>
      </trkpt>
      <trkpt lat="46.0076" lon="6.44663">
        <ele>1693</ele>
        <time>2008-12-22T10:02:32Z</time>
      </trkpt>
      <trkpt lat="46.00743" lon="6.44653">
        <ele>1700</ele>
        <time>2008-12-22T10:03:12Z</time>
      </trkpt>
      <trkpt lat="46.00745" lon="6.4468">
        <ele>1706</ele>
        <time>2008-12-22T10:04:08Z</time>
      </trkpt>
      <trkpt lat="46.00727" lon="6.44682">
        <ele>1717</ele>
        <time>2008-12-22T10:05:23Z</time>
      </trkpt>
      <trkpt lat="46.0071" lon="6.44693">
        <ele>1728</ele>
        <time>2008-12-22T10:07:48Z</time>
      </trkpt>
      <trkpt lat="46.00693" lon="6.44682">
        <ele>1735</ele>
        <time>2008-12-22T10:08:41Z</time>
      </trkpt>
      <trkpt lat="46.00675" lon="6.44672">
        <ele>1742</ele>
        <time>2008-12-22T10:09:46Z</time>
      </trkpt>
      <trkpt lat="46.00662" lon="6.4469">
        <ele>1752</ele>
        <time>2008-12-22T10:10:58Z</time>
      </trkpt>
      <trkpt lat="46.00643" lon="6.44685">
        <ele>1765</ele>
        <time>2008-12-22T10:12:26Z</time>
      </trkpt>
      <trkpt lat="46.00627" lon="6.44672">
        <ele>1769</ele>
        <time>2008-12-22T10:13:02Z</time>
      </trkpt>
      <trkpt lat="46.00633" lon="6.44697">
        <ele>1780</ele>
        <time>2008-12-22T10:15:05Z</time>
      </trkpt>
      <trkpt lat="46.00635" lon="6.44723">
        <ele>1785</ele>
        <time>2008-12-22T10:15:54Z</time>
      </trkpt>
      <trkpt lat="46.00622" lon="6.44742">
        <ele>1794</ele>
        <time>2008-12-22T10:18:05Z</time>
      </trkpt>
      <trkpt lat="46.00605" lon="6.44728">
        <ele>1806</ele>
        <time>2008-12-22T10:20:07Z</time>
      </trkpt>
      <trkpt lat="46.00588" lon="6.44718">
        <ele>1810</ele>
        <time>2008-12-22T10:22:01Z</time>
      </trkpt>
      <trkpt lat="46.00572" lon="6.44705">
        <ele>1813</ele>
        <time>2008-12-22T10:22:30Z</time>
      </trkpt>
      <trkpt lat="46.00555" lon="6.44717">
        <ele>1819</ele>
        <time>2008-12-22T10:23:07Z</time>
      </trkpt>
      <trkpt lat="46.00537" lon="6.44725">
        <ele>1826</ele>
        <time>2008-12-22T10:23:37Z</time>
      </trkpt>
      <trkpt lat="46.00525" lon="6.44703">
        <ele>1828</ele>
        <time>2008-12-22T10:24:12Z</time>
      </trkpt>
      <trkpt lat="46.00505" lon="6.44695">
        <ele>1829</ele>
        <time>2008-12-22T10:24:49Z</time>
      </trkpt>
      <trkpt lat="46.00487" lon="6.44692">
        <ele>1828</ele>
        <time>2008-12-22T10:25:03Z</time>
      </trkpt>
      <trkpt lat="46.00467" lon="6.44687">
        <ele>1832</ele>
        <time>2008-12-22T10:25:24Z</time>
      </trkpt>
      <trkpt lat="46.0045" lon="6.44677">
        <ele>1834</ele>
        <time>2008-12-22T10:25:46Z</time>
      </trkpt>
      <trkpt lat="46.00432" lon="6.44678">
        <ele>1835</ele>
        <time>2008-12-22T10:26:13Z</time>
      </trkpt>
      <trkpt lat="46.00415" lon="6.44668">
        <ele>1840</ele>
        <time>2008-12-22T10:26:47Z</time>
      </trkpt>
      <trkpt lat="46.00407" lon="6.44645">
        <ele>1846</ele>
        <time>2008-12-22T10:27:22Z</time>
      </trkpt>
      <trkpt lat="46.00392" lon="6.4463">
        <ele>1852</ele>
        <time>2008-12-22T10:27:55Z</time>
      </trkpt>
      <trkpt lat="46.00387" lon="6.44603">
        <ele>1859</ele>
        <time>2008-12-22T10:28:40Z</time>
      </trkpt>
      <trkpt lat="46.00368" lon="6.44595">
        <ele>1862</ele>
        <time>2008-12-22T10:29:45Z</time>
      </trkpt>
      <trkpt lat="46.0035" lon="6.44592">
        <ele>1865</ele>
        <time>2008-12-22T10:30:18Z</time>
      </trkpt>
      <trkpt lat="46.00332" lon="6.44595">
        <ele>1867</ele>
        <time>2008-12-22T10:30:52Z</time>
      </trkpt>
      <trkpt lat="46.00313" lon="6.44605">
        <ele>1871</ele>
        <time>2008-12-22T10:31:19Z</time>
      </trkpt>
      <trkpt lat="46.00295" lon="6.44612">
        <ele>1873</ele>
        <time>2008-12-22T10:36:37Z</time>
      </trkpt>
      <trkpt lat="46.0028" lon="6.44627">
        <ele>1877</ele>
        <time>2008-12-22T10:37:06Z</time>
      </trkpt>
      <trkpt lat="46.00265" lon="6.44643">
        <ele>1881</ele>
        <time>2008-12-22T10:37:39Z</time>
      </trkpt>
      <trkpt lat="46.00247" lon="6.44652">
        <ele>1881</ele>
        <time>2008-12-22T10:37:59Z</time>
      </trkpt>
      <trkpt lat="46.0023" lon="6.44665">
        <ele>1883</ele>
        <time>2008-12-22T10:38:24Z</time>
      </trkpt>
      <trkpt lat="46.00213" lon="6.4468">
        <ele>1886</ele>
        <time>2008-12-22T10:38:50Z</time>
      </trkpt>
      <trkpt lat="46.00198" lon="6.44695">
        <ele>1888</ele>
        <time>2008-12-22T10:39:11Z</time>
      </trkpt>
      <trkpt lat="46.0018" lon="6.4471">
        <ele>1888</ele>
        <time>2008-12-22T10:39:31Z</time>
      </trkpt>
      <trkpt lat="46.00168" lon="6.4473">
        <ele>1888</ele>
        <time>2008-12-22T10:40:24Z</time>
      </trkpt>
      <trkpt lat="46.00165" lon="6.44768">
        <ele>1882</ele>
        <time>2008-12-22T10:40:30Z</time>
      </trkpt>
      <trkpt lat="46.0015" lon="6.4479">
        <ele>1877</ele>
        <time>2008-12-22T10:40:38Z</time>
      </trkpt>
      <trkpt lat="46.00135" lon="6.44808">
        <ele>1877</ele>
        <time>2008-12-22T10:41:05Z</time>
      </trkpt>
      <trkpt lat="46.00118" lon="6.44823">
        <ele>1880</ele>
        <time>2008-12-22T10:41:23Z</time>
      </trkpt>
      <trkpt lat="46.001" lon="6.4483">
        <ele>1881</ele>
        <time>2008-12-22T10:41:48Z</time>
      </trkpt>
      <trkpt lat="46.00088" lon="6.4485">
        <ele>1886</ele>
        <time>2008-12-22T10:42:37Z</time>
      </trkpt>
      <trkpt lat="46.00082" lon="6.44875">
        <ele>1888</ele>
        <time>2008-12-22T10:43:08Z</time>
      </trkpt>
      <trkpt lat="46.0007" lon="6.44897">
        <ele>1883</ele>
        <time>2008-12-22T10:43:44Z</time>
      </trkpt>
      <trkpt lat="46.00068" lon="6.44923">
        <ele>1884</ele>
        <time>2008-12-22T10:44:33Z</time>
      </trkpt>
      <trkpt lat="46.00055" lon="6.44943">
        <ele>1886</ele>
        <time>2008-12-22T10:45:20Z</time>
      </trkpt>
      <trkpt lat="46.00052" lon="6.4497">
        <ele>1900</ele>
        <time>2008-12-22T10:46:05Z</time>
      </trkpt>
      <trkpt lat="46.00033" lon="6.44965">
        <ele>1907</ele>
        <time>2008-12-22T10:46:40Z</time>
      </trkpt>
      <trkpt lat="46.00025" lon="6.44988">
        <ele>1911</ele>
        <time>2008-12-22T10:47:19Z</time>
      </trkpt>
      <trkpt lat="46.00007" lon="6.44988">
        <ele>1922</ele>
        <time>2008-12-22T10:48:20Z</time>
      </trkpt>
      <trkpt lat="45.9999" lon="6.44978">
        <ele>1925</ele>
        <time>2008-12-22T10:48:55Z</time>
      </trkpt>
      <trkpt lat="45.99972" lon="6.4497">
        <ele>1926</ele>
        <time>2008-12-22T10:49:31Z</time>
      </trkpt>
      <trkpt lat="45.99967" lon="6.44995">
        <ele>1928</ele>
        <time>2008-12-22T10:50:10Z</time>
      </trkpt>
      <trkpt lat="45.99965" lon="6.45022">
        <ele>1934</ele>
        <time>2008-12-22T10:50:57Z</time>
      </trkpt>
      <trkpt lat="45.99947" lon="6.45017">
        <ele>1947</ele>
        <time>2008-12-22T10:52:39Z</time>
      </trkpt>
      <trkpt lat="45.99943" lon="6.45043">
        <ele>1951</ele>
        <time>2008-12-22T10:53:22Z</time>
      </trkpt>
      <trkpt lat="45.99927" lon="6.45033">
        <ele>1962</ele>
        <time>2008-12-22T10:54:52Z</time>
      </trkpt>
      <trkpt lat="45.99912" lon="6.45018">
        <ele>1964</ele>
        <time>2008-12-22T10:55:39Z</time>
      </trkpt>
      <trkpt lat="45.99905" lon="6.45043">
        <ele>1969</ele>
        <time>2008-12-22T10:59:09Z</time>
      </trkpt>
      <trkpt lat="45.99898" lon="6.45068">
        <ele>1971</ele>
        <time>2008-12-22T10:59:46Z</time>
      </trkpt>
      <trkpt lat="45.999" lon="6.45095">
        <ele>1982</ele>
        <time>2008-12-22T11:00:49Z</time>
      </trkpt>
      <trkpt lat="45.99903" lon="6.45122">
        <ele>1991</ele>
        <time>2008-12-22T11:02:05Z</time>
      </trkpt>
      <trkpt lat="45.99903" lon="6.45148">
        <ele>1997</ele>
        <time>2008-12-22T11:02:52Z</time>
      </trkpt>
      <trkpt lat="45.99885" lon="6.45148">
        <ele>2011</ele>
        <time>2008-12-22T11:04:42Z</time>
      </trkpt>
      <trkpt lat="45.99867" lon="6.45135">
        <ele>2017</ele>
        <time>2008-12-22T11:05:33Z</time>
      </trkpt>
      <trkpt lat="45.9987" lon="6.45162">
        <ele>2024</ele>
        <time>2008-12-22T11:07:05Z</time>
      </trkpt>
      <trkpt lat="45.99873" lon="6.45188">
        <ele>2028</ele>
        <time>2008-12-22T11:07:54Z</time>
      </trkpt>
      <trkpt lat="45.99885" lon="6.4521">
        <ele>2033</ele>
        <time>2008-12-22T11:08:41Z</time>
      </trkpt>
      <trkpt lat="45.99895" lon="6.45232">
        <ele>2037</ele>
        <time>2008-12-22T11:09:26Z</time>
      </trkpt>
      <trkpt lat="45.99905" lon="6.45255">
        <ele>2046</ele>
        <time>2008-12-22T11:10:11Z</time>
      </trkpt>
      <trkpt lat="45.99888" lon="6.45265">
        <ele>2058</ele>
        <time>2008-12-22T11:12:44Z</time>
      </trkpt>
      <trkpt lat="45.99892" lon="6.45292">
        <ele>2062</ele>
        <time>2008-12-22T11:13:20Z</time>
      </trkpt>
      <trkpt lat="45.99897" lon="6.45317">
        <ele>2070</ele>
        <time>2008-12-22T11:14:46Z</time>
      </trkpt>
      <trkpt lat="45.99903" lon="6.45342">
        <ele>2071</ele>
        <time>2008-12-22T11:15:43Z</time>
      </trkpt>
      <trkpt lat="45.99915" lon="6.45363">
        <ele>2080</ele>
        <time>2008-12-22T11:16:30Z</time>
      </trkpt>
      <trkpt lat="45.99927" lon="6.45383">
        <ele>2085</ele>
        <time>2008-12-22T11:17:13Z</time>
      </trkpt>
      <trkpt lat="45.99908" lon="6.45392">
        <ele>2090</ele>
        <time>2008-12-22T11:18:51Z</time>
      </trkpt>
      <trkpt lat="45.99913" lon="6.45417">
        <ele>2104</ele>
        <time>2008-12-22T11:20:33Z</time>
      </trkpt>
      <trkpt lat="45.99908" lon="6.45442">
        <ele>2107</ele>
        <time>2008-12-22T11:22:07Z</time>
      </trkpt>
      <trkpt lat="45.99925" lon="6.45455">
        <ele>2114</ele>
        <time>2008-12-22T11:22:42Z</time>
      </trkpt>
      <trkpt lat="45.99912" lon="6.45473">
        <ele>2122</ele>
        <time>2008-12-22T11:23:47Z</time>
      </trkpt>
      <trkpt lat="45.99893" lon="6.4548">
        <ele>2127</ele>
        <time>2008-12-22T11:24:32Z</time>
      </trkpt>
      <trkpt lat="45.99895" lon="6.45507">
        <ele>2136</ele>
        <time>2008-12-22T11:26:12Z</time>
      </trkpt>
      <trkpt lat="45.99908" lon="6.45525">
        <ele>2143</ele>
        <time>2008-12-22T11:26:53Z</time>
      </trkpt>
      <trkpt lat="45.99927" lon="6.45535">
        <ele>2151</ele>
        <time>2008-12-22T11:27:40Z</time>
      </trkpt>
      <trkpt lat="45.99943" lon="6.45545">
        <ele>2155</ele>
        <time>2008-12-22T11:28:27Z</time>
      </trkpt>
      <trkpt lat="45.9996" lon="6.45555">
        <ele>2161</ele>
        <time>2008-12-22T11:29:12Z</time>
      </trkpt>
      <trkpt lat="45.9995" lon="6.45577">
        <ele>2169</ele>
        <time>2008-12-22T11:30:46Z</time>
      </trkpt>
      <trkpt lat="45.99933" lon="6.45587">
        <ele>2173</ele>
        <time>2008-12-22T11:31:29Z</time>
      </trkpt>
      <trkpt lat="45.9995" lon="6.45597">
        <ele>2181</ele>
        <time>2008-12-22T11:32:24Z</time>
      </trkpt>
      <trkpt lat="45.99968" lon="6.45605">
        <ele>2186</ele>
        <time>2008-12-22T11:33:15Z</time>
      </trkpt>
      <trkpt lat="45.99987" lon="6.4561">
        <ele>2193</ele>
        <time>2008-12-22T11:34:00Z</time>
      </trkpt>
      <trkpt lat="45.99972" lon="6.45627">
        <ele>2196</ele>
        <time>2008-12-22T11:35:11Z</time>
      </trkpt>
      <trkpt lat="45.99967" lon="6.45652">
        <ele>2208</ele>
        <time>2008-12-22T11:37:18Z</time>
      </trkpt>
      <trkpt lat="45.9995" lon="6.45662">
        <ele>2214</ele>
        <time>2008-12-22T11:38:13Z</time>
      </trkpt>
      <trkpt lat="45.99935" lon="6.45677">
        <ele>2217</ele>
        <time>2008-12-22T11:38:56Z</time>
      </trkpt>
      <trkpt lat="45.99918" lon="6.4569">
        <ele>2223</ele>
        <time>2008-12-22T11:39:47Z</time>
      </trkpt>
      <trkpt lat="45.99902" lon="6.457">
        <ele>2226</ele>
        <time>2008-12-22T11:40:28Z</time>
      </trkpt>
      <trkpt lat="45.99885" lon="6.4571">
        <ele>2229</ele>
        <time>2008-12-22T11:41:07Z</time>
      </trkpt>
      <trkpt lat="45.9987" lon="6.45725">
        <ele>2232</ele>
        <time>2008-12-22T11:41:49Z</time>
      </trkpt>
      <trkpt lat="45.99852" lon="6.45733">
        <ele>2240</ele>
        <time>2008-12-22T11:43:42Z</time>
      </trkpt>
      <trkpt lat="45.99833" lon="6.45732">
        <ele>2242</ele>
        <time>2008-12-22T11:44:12Z</time>
      </trkpt>
      <trkpt lat="45.99817" lon="6.45713">
        <ele>2250</ele>
        <time>2008-12-22T11:44:51Z</time>
      </trkpt>
      <trkpt lat="45.99832" lon="6.45697">
        <ele>2250</ele>
        <time>2008-12-22T12:44:04Z</time>
      </trkpt>
      <trkpt lat="45.99847" lon="6.45677">
        <ele>2235</ele>
        <time>2008-12-22T12:44:20Z</time>
      </trkpt>
      <trkpt lat="45.9986" lon="6.45657">
        <ele>2222</ele>
        <time>2008-12-22T12:44:41Z</time>
      </trkpt>
      <trkpt lat="45.99857" lon="6.4563">
        <ele>2209</ele>
        <time>2008-12-22T12:45:15Z</time>
      </trkpt>
      <trkpt lat="45.99867" lon="6.45607">
        <ele>2191</ele>
        <time>2008-12-22T12:45:34Z</time>
      </trkpt>
      <trkpt lat="45.99883" lon="6.45588">
        <ele>2178</ele>
        <time>2008-12-22T12:46:10Z</time>
      </trkpt>
      <trkpt lat="45.99883" lon="6.45558">
        <ele>2164</ele>
        <time>2008-12-22T12:46:19Z</time>
      </trkpt>
      <trkpt lat="45.9989" lon="6.4553">
        <ele>2152</ele>
        <time>2008-12-22T12:46:29Z</time>
      </trkpt>
      <trkpt lat="45.999" lon="6.45497">
        <ele>2138</ele>
        <time>2008-12-22T12:46:39Z</time>
      </trkpt>
      <trkpt lat="45.99902" lon="6.45468">
        <ele>2121</ele>
        <time>2008-12-22T12:46:49Z</time>
      </trkpt>
      <trkpt lat="45.999" lon="6.45435">
        <ele>2111</ele>
        <time>2008-12-22T12:46:59Z</time>
      </trkpt>
      <trkpt lat="45.99897" lon="6.45402">
        <ele>2103</ele>
        <time>2008-12-22T12:48:35Z</time>
      </trkpt>
      <trkpt lat="45.99897" lon="6.4537">
        <ele>2089</ele>
        <time>2008-12-22T12:48:46Z</time>
      </trkpt>
      <trkpt lat="45.99903" lon="6.45342">
        <ele>2076</ele>
        <time>2008-12-22T12:49:00Z</time>
      </trkpt>
      <trkpt lat="45.99912" lon="6.45317">
        <ele>2061</ele>
        <time>2008-12-22T12:49:12Z</time>
      </trkpt>
      <trkpt lat="45.9993" lon="6.45302">
        <ele>2046</ele>
        <time>2008-12-22T12:49:22Z</time>
      </trkpt>
      <trkpt lat="45.99942" lon="6.45273">
        <ele>2030</ele>
        <time>2008-12-22T12:49:35Z</time>
      </trkpt>
      <trkpt lat="45.99948" lon="6.45245">
        <ele>2017</ele>
        <time>2008-12-22T12:49:43Z</time>
      </trkpt>
      <trkpt lat="45.99953" lon="6.4522">
        <ele>2006</ele>
        <time>2008-12-22T12:49:51Z</time>
      </trkpt>
      <trkpt lat="45.99963" lon="6.45195">
        <ele>1992</ele>
        <time>2008-12-22T12:49:59Z</time>
      </trkpt>
      <trkpt lat="45.99975" lon="6.45168">
        <ele>1975</ele>
        <time>2008-12-22T12:50:36Z</time>
      </trkpt>
      <trkpt lat="45.99993" lon="6.45173">
        <ele>1968</ele>
        <time>2008-12-22T12:50:42Z</time>
      </trkpt>
      <trkpt lat="46.00012" lon="6.45162">
        <ele>1957</ele>
        <time>2008-12-22T12:50:48Z</time>
      </trkpt>
      <trkpt lat="46.00003" lon="6.45132">
        <ele>1950</ele>
        <time>2008-12-22T12:53:05Z</time>
      </trkpt>
      <trkpt lat="46.00022" lon="6.45118">
        <ele>1941</ele>
        <time>2008-12-22T12:53:11Z</time>
      </trkpt>
      <trkpt lat="46.00022" lon="6.45078">
        <ele>1934</ele>
        <time>2008-12-22T12:53:15Z</time>
      </trkpt>
      <trkpt lat="46.0004" lon="6.45077">
        <ele>1928</ele>
        <time>2008-12-22T12:53:19Z</time>
      </trkpt>
      <trkpt lat="46.00038" lon="6.45042">
        <ele>1923</ele>
        <time>2008-12-22T12:53:23Z</time>
      </trkpt>
      <trkpt lat="46.0006" lon="6.45027">
        <ele>1913</ele>
        <time>2008-12-22T12:53:27Z</time>
      </trkpt>
      <trkpt lat="46.00083" lon="6.45048">
        <ele>1912</ele>
        <time>2008-12-22T12:53:31Z</time>
      </trkpt>
      <trkpt lat="46.00103" lon="6.45055">
        <ele>1910</ele>
        <time>2008-12-22T12:53:50Z</time>
      </trkpt>
      <trkpt lat="46.00122" lon="6.45058">
        <ele>1907</ele>
        <time>2008-12-22T12:53:54Z</time>
      </trkpt>
      <trkpt lat="46.00143" lon="6.45058">
        <ele>1905</ele>
        <time>2008-12-22T12:53:58Z</time>
      </trkpt>
      <trkpt lat="46.00163" lon="6.45053">
        <ele>1903</ele>
        <time>2008-12-22T12:54:02Z</time>
      </trkpt>
      <trkpt lat="46.00183" lon="6.45052">
        <ele>1900</ele>
        <time>2008-12-22T12:54:06Z</time>
      </trkpt>
      <trkpt lat="46.00202" lon="6.45057">
        <ele>1899</ele>
        <time>2008-12-22T12:54:10Z</time>
      </trkpt>
      <trkpt lat="46.0022" lon="6.45065">
        <ele>1896</ele>
        <time>2008-12-22T12:54:14Z</time>
      </trkpt>
      <trkpt lat="46.00242" lon="6.45068">
        <ele>1891</ele>
        <time>2008-12-22T12:54:18Z</time>
      </trkpt>
      <trkpt lat="46.00268" lon="6.4506">
        <ele>1887</ele>
        <time>2008-12-22T12:54:22Z</time>
      </trkpt>
      <trkpt lat="46.00288" lon="6.4504">
        <ele>1884</ele>
        <time>2008-12-22T12:54:27Z</time>
      </trkpt>
      <trkpt lat="46.00307" lon="6.45027">
        <ele>1880</ele>
        <time>2008-12-22T12:54:31Z</time>
      </trkpt>
      <trkpt lat="46.00327" lon="6.4501">
        <ele>1876</ele>
        <time>2008-12-22T12:54:35Z</time>
      </trkpt>
      <trkpt lat="46.00353" lon="6.4497">
        <ele>1869</ele>
        <time>2008-12-22T12:54:39Z</time>
      </trkpt>
      <trkpt lat="46.00365" lon="6.4495">
        <ele>1866</ele>
        <time>2008-12-22T12:54:41Z</time>
      </trkpt>
      <trkpt lat="46.0039" lon="6.44923">
        <ele>1865</ele>
        <time>2008-12-22T12:54:45Z</time>
      </trkpt>
      <trkpt lat="46.00408" lon="6.44912">
        <ele>1864</ele>
        <time>2008-12-22T12:54:49Z</time>
      </trkpt>
      <trkpt lat="46.00427" lon="6.44913">
        <ele>1863</ele>
        <time>2008-12-22T12:55:22Z</time>
      </trkpt>
      <trkpt lat="46.00448" lon="6.449">
        <ele>1857</ele>
        <time>2008-12-22T12:58:54Z</time>
      </trkpt>
      <trkpt lat="46.00467" lon="6.44895">
        <ele>1850</ele>
        <time>2008-12-22T12:59:04Z</time>
      </trkpt>
      <trkpt lat="46.00487" lon="6.4488">
        <ele>1842</ele>
        <time>2008-12-22T12:59:14Z</time>
      </trkpt>
      <trkpt lat="46.00505" lon="6.44873">
        <ele>1840</ele>
        <time>2008-12-22T12:59:31Z</time>
      </trkpt>
      <trkpt lat="46.00523" lon="6.44865">
        <ele>1829</ele>
        <time>2008-12-22T12:59:45Z</time>
      </trkpt>
      <trkpt lat="46.00537" lon="6.44843">
        <ele>1822</ele>
        <time>2008-12-22T13:00:22Z</time>
      </trkpt>
      <trkpt lat="46.0055" lon="6.4482">
        <ele>1813</ele>
        <time>2008-12-22T13:00:30Z</time>
      </trkpt>
      <trkpt lat="46.00562" lon="6.44783">
        <ele>1808</ele>
        <time>2008-12-22T13:00:36Z</time>
      </trkpt>
      <trkpt lat="46.0057" lon="6.4476">
        <ele>1808</ele>
        <time>2008-12-22T13:00:40Z</time>
      </trkpt>
      <trkpt lat="46.00577" lon="6.44732">
        <ele>1805</ele>
        <time>2008-12-22T13:00:48Z</time>
      </trkpt>
      <trkpt lat="46.00595" lon="6.44732">
        <ele>1804</ele>
        <time>2008-12-22T13:00:59Z</time>
      </trkpt>
      <trkpt lat="46.00615" lon="6.44728">
        <ele>1802</ele>
        <time>2008-12-22T13:01:48Z</time>
      </trkpt>
      <trkpt lat="46.0063" lon="6.44743">
        <ele>1793</ele>
        <time>2008-12-22T13:02:20Z</time>
      </trkpt>
      <trkpt lat="46.00648" lon="6.44738">
        <ele>1785</ele>
        <time>2008-12-22T13:03:03Z</time>
      </trkpt>
      <trkpt lat="46.00638" lon="6.44717">
        <ele>1783</ele>
        <time>2008-12-22T13:03:40Z</time>
      </trkpt>
      <trkpt lat="46.00633" lon="6.44692">
        <ele>1777</ele>
        <time>2008-12-22T13:04:13Z</time>
      </trkpt>
      <trkpt lat="46.00653" lon="6.44695">
        <ele>1760</ele>
        <time>2008-12-22T13:06:33Z</time>
      </trkpt>
      <trkpt lat="46.00668" lon="6.44675">
        <ele>1749</ele>
        <time>2008-12-22T13:06:46Z</time>
      </trkpt>
      <trkpt lat="46.00683" lon="6.44692">
        <ele>1740</ele>
        <time>2008-12-22T13:06:54Z</time>
      </trkpt>
      <trkpt lat="46.00702" lon="6.44695">
        <ele>1731</ele>
        <time>2008-12-22T13:07:06Z</time>
      </trkpt>
      <trkpt lat="46.00723" lon="6.44698">
        <ele>1724</ele>
        <time>2008-12-22T13:07:18Z</time>
      </trkpt>
      <trkpt lat="46.00738" lon="6.44713">
        <ele>1713</ele>
        <time>2008-12-22T13:08:13Z</time>
      </trkpt>
      <trkpt lat="46.00753" lon="6.44697">
        <ele>1706</ele>
        <time>2008-12-22T13:08:26Z</time>
      </trkpt>
      <trkpt lat="46.00772" lon="6.44707">
        <ele>1694</ele>
        <time>2008-12-22T13:08:46Z</time>
      </trkpt>
      <trkpt lat="46.00792" lon="6.4471">
        <ele>1688</ele>
        <time>2008-12-22T13:09:13Z</time>
      </trkpt>
      <trkpt lat="46.00807" lon="6.44695">
        <ele>1686</ele>
        <time>2008-12-22T13:09:39Z</time>
      </trkpt>
      <trkpt lat="46.00807" lon="6.44665">
        <ele>1684</ele>
        <time>2008-12-22T13:10:02Z</time>
      </trkpt>
      <trkpt lat="46.00805" lon="6.44632">
        <ele>1681</ele>
        <time>2008-12-22T13:10:08Z</time>
      </trkpt>
      <trkpt lat="46.00792" lon="6.4461">
        <ele>1678</ele>
        <time>2008-12-22T13:10:20Z</time>
      </trkpt>
      <trkpt lat="46.00778" lon="6.44592">
        <ele>1675</ele>
        <time>2008-12-22T13:10:28Z</time>
      </trkpt>
      <trkpt lat="46.00802" lon="6.44588">
        <ele>1666</ele>
        <time>2008-12-22T13:10:43Z</time>
      </trkpt>
      <trkpt lat="46.0082" lon="6.44592">
        <ele>1663</ele>
        <time>2008-12-22T13:10:49Z</time>
      </trkpt>
      <trkpt lat="46.00833" lon="6.44565">
        <ele>1660</ele>
        <time>2008-12-22T13:10:59Z</time>
      </trkpt>
      <trkpt lat="46.00827" lon="6.44535">
        <ele>1653</ele>
        <time>2008-12-22T13:11:05Z</time>
      </trkpt>
      <trkpt lat="46.00808" lon="6.44517">
        <ele>1645</ele>
        <time>2008-12-22T13:11:13Z</time>
      </trkpt>
      <trkpt lat="46.00803" lon="6.4448">
        <ele>1637</ele>
        <time>2008-12-22T13:11:23Z</time>
      </trkpt>
      <trkpt lat="46.00792" lon="6.44448">
        <ele>1631</ele>
        <time>2008-12-22T13:11:29Z</time>
      </trkpt>
      <trkpt lat="46.00782" lon="6.44417">
        <ele>1625</ele>
        <time>2008-12-22T13:11:36Z</time>
      </trkpt>
      <trkpt lat="46.00758" lon="6.44407">
        <ele>1621</ele>
        <time>2008-12-22T13:11:40Z</time>
      </trkpt>
      <trkpt lat="46.00757" lon="6.44375">
        <ele>1620</ele>
        <time>2008-12-22T13:13:44Z</time>
      </trkpt>
      <trkpt lat="46.00745" lon="6.44348">
        <ele>1618</ele>
        <time>2008-12-22T13:13:52Z</time>
      </trkpt>
      <trkpt lat="46.0074" lon="6.44322">
        <ele>1616</ele>
        <time>2008-12-22T13:15:34Z</time>
      </trkpt>
      <trkpt lat="46.00723" lon="6.44307">
        <ele>1615</ele>
        <time>2008-12-22T13:15:43Z</time>
      </trkpt>
      <trkpt lat="46.00728" lon="6.44275">
        <ele>1614</ele>
        <time>2008-12-22T13:15:51Z</time>
      </trkpt>
      <trkpt lat="46.00705" lon="6.44272">
        <ele>1610</ele>
        <time>2008-12-22T13:16:40Z</time>
      </trkpt>
      <trkpt lat="46.00682" lon="6.44273">
        <ele>1608</ele>
        <time>2008-12-22T13:16:44Z</time>
      </trkpt>
      <trkpt lat="46.00695" lon="6.44247">
        <ele>1603</ele>
        <time>2008-12-22T13:16:54Z</time>
      </trkpt>
      <trkpt lat="46.00675" lon="6.44242">
        <ele>1596</ele>
        <time>2008-12-22T13:17:19Z</time>
      </trkpt>
      <trkpt lat="46.00655" lon="6.44235">
        <ele>1594</ele>
        <time>2008-12-22T13:17:27Z</time>
      </trkpt>
      <trkpt lat="46.00633" lon="6.4423">
        <ele>1592</ele>
        <time>2008-12-22T13:17:33Z</time>
      </trkpt>
      <trkpt lat="46.00622" lon="6.4421">
        <ele>1582</ele>
        <time>2008-12-22T13:17:51Z</time>
      </trkpt>
      <trkpt lat="46.00607" lon="6.44193">
        <ele>1577</ele>
        <time>2008-12-22T13:18:08Z</time>
      </trkpt>
      <trkpt lat="46.00598" lon="6.44165">
        <ele>1567</ele>
        <time>2008-12-22T13:18:47Z</time>
      </trkpt>
      <trkpt lat="46.00582" lon="6.44155">
        <ele>1563</ele>
        <time>2008-12-22T13:19:05Z</time>
      </trkpt>
      <trkpt lat="46.00563" lon="6.4416">
        <ele>1561</ele>
        <time>2008-12-22T13:20:14Z</time>
      </trkpt>
      <trkpt lat="46.00547" lon="6.44143">
        <ele>1561</ele>
        <time>2008-12-22T13:20:28Z</time>
      </trkpt>
      <trkpt lat="46.00565" lon="6.44153">
        <ele>1561</ele>
        <time>2008-12-22T13:20:41Z</time>
      </trkpt>
      <trkpt lat="46.00567" lon="6.44125">
        <ele>1558</ele>
        <time>2008-12-22T13:21:52Z</time>
      </trkpt>
      <trkpt lat="46.0056" lon="6.44098">
        <ele>1533</ele>
        <time>2008-12-22T13:22:17Z</time>
      </trkpt>
      <trkpt lat="46.0058" lon="6.44073">
        <ele>1524</ele>
        <time>2008-12-22T13:22:29Z</time>
      </trkpt>
      <trkpt lat="46.00575" lon="6.44048">
        <ele>1516</ele>
        <time>2008-12-22T13:23:04Z</time>
      </trkpt>
      <trkpt lat="46.00587" lon="6.44022">
        <ele>1513</ele>
        <time>2008-12-22T13:23:10Z</time>
      </trkpt>
      <trkpt lat="46.00597" lon="6.43997">
        <ele>1510</ele>
        <time>2008-12-22T13:23:14Z</time>
      </trkpt>
      <trkpt lat="46.00597" lon="6.4396">
        <ele>1507</ele>
        <time>2008-12-22T13:23:18Z</time>
      </trkpt>
      <trkpt lat="46.00588" lon="6.43928">
        <ele>1505</ele>
        <time>2008-12-22T13:23:22Z</time>
      </trkpt>
      <trkpt lat="46.00578" lon="6.43903">
        <ele>1505</ele>
        <time>2008-12-22T13:23:51Z</time>
      </trkpt>
      <trkpt lat="46.00578" lon="6.43877">
        <ele>1502</ele>
        <time>2008-12-22T13:24:11Z</time>
      </trkpt>
      <trkpt lat="46.0058" lon="6.43848">
        <ele>1501</ele>
        <time>2008-12-22T13:24:19Z</time>
      </trkpt>
      <trkpt lat="46.00585" lon="6.43818">
        <ele>1497</ele>
        <time>2008-12-22T13:24:27Z</time>
      </trkpt>
      <trkpt lat="46.00595" lon="6.43793">
        <ele>1495</ele>
        <time>2008-12-22T13:24:33Z</time>
      </trkpt>
      <trkpt lat="46.00602" lon="6.43767">
        <ele>1492</ele>
        <time>2008-12-22T13:24:40Z</time>
      </trkpt>
      <trkpt lat="46.00612" lon="6.4373">
        <ele>1488</ele>
        <time>2008-12-22T13:24:46Z</time>
      </trkpt>
      <trkpt lat="46.00617" lon="6.437">
        <ele>1487</ele>
        <time>2008-12-22T13:24:50Z</time>
      </trkpt>
      <trkpt lat="46.0062" lon="6.43662">
        <ele>1485</ele>
        <time>2008-12-22T13:24:56Z</time>
      </trkpt>
      <trkpt lat="46.00627" lon="6.4363">
        <ele>1482</ele>
        <time>2008-12-22T13:25:12Z</time>
      </trkpt>
      <trkpt lat="46.0063" lon="6.436">
        <ele>1478</ele>
        <time>2008-12-22T13:25:16Z</time>
      </trkpt>
      <trkpt lat="46.0063" lon="6.4357">
        <ele>1474</ele>
        <time>2008-12-22T13:25:20Z</time>
      </trkpt>
      <trkpt lat="46.00627" lon="6.43542">
        <ele>1471</ele>
        <time>2008-12-22T13:25:29Z</time>
      </trkpt>
      <trkpt lat="46.00622" lon="6.43508">
        <ele>1468</ele>
        <time>2008-12-22T13:25:35Z</time>
      </trkpt>
      <trkpt lat="46.00618" lon="6.43473">
        <ele>1467</ele>
        <time>2008-12-22T13:25:41Z</time>
      </trkpt>
      <trkpt lat="46.00618" lon="6.43438">
        <ele>1464</ele>
        <time>2008-12-22T13:25:47Z</time>
      </trkpt>
      <trkpt lat="46.00618" lon="6.43387">
        <ele>1456</ele>
        <time>2008-12-22T13:25:53Z</time>
      </trkpt>
      <trkpt lat="46.0062" lon="6.43352">
        <ele>1453</ele>
        <time>2008-12-22T13:25:57Z</time>
      </trkpt>
      <trkpt lat="46.00622" lon="6.43315">
        <ele>1450</ele>
        <time>2008-12-22T13:26:01Z</time>
      </trkpt>
      <trkpt lat="46.0062" lon="6.43277">
        <ele>1447</ele>
        <time>2008-12-22T13:26:05Z</time>
      </trkpt>
      <trkpt lat="46.0062" lon="6.43247">
        <ele>1446</ele>
        <time>2008-12-22T13:26:09Z</time>
      </trkpt>
      <trkpt lat="46.0061" lon="6.43223">
        <ele>1443</ele>
        <time>2008-12-22T13:26:22Z</time>
      </trkpt>
      <trkpt lat="46.00592" lon="6.43215">
        <ele>1430</ele>
        <time>2008-12-22T13:26:32Z</time>
      </trkpt>
      <trkpt lat="46.00595" lon="6.43187">
        <ele>1426</ele>
        <time>2008-12-22T13:27:09Z</time>
      </trkpt>
      <trkpt lat="46.006" lon="6.43158">
        <ele>1423</ele>
        <time>2008-12-22T13:27:17Z</time>
      </trkpt>
      <trkpt lat="46.00613" lon="6.43128">
        <ele>1420</ele>
        <time>2008-12-22T13:27:23Z</time>
      </trkpt>
      <trkpt lat="46.00615" lon="6.43102">
        <ele>1418</ele>
        <time>2008-12-22T13:27:29Z</time>
      </trkpt>
      <trkpt lat="46.00597" lon="6.43083">
        <ele>1410</ele>
        <time>2008-12-22T13:27:37Z</time>
      </trkpt>
      <trkpt lat="46.00573" lon="6.43082">
        <ele>1397</ele>
        <time>2008-12-22T13:28:02Z</time>
      </trkpt>
      <trkpt lat="46.00555" lon="6.43072">
        <ele>1394</ele>
        <time>2008-12-22T13:28:08Z</time>
      </trkpt>
      <trkpt lat="46.00552" lon="6.43042">
        <ele>1390</ele>
        <time>2008-12-22T13:28:28Z</time>
      </trkpt>
      <trkpt lat="46.00557" lon="6.43008">
        <ele>1385</ele>
        <time>2008-12-22T13:28:36Z</time>
      </trkpt>
      <trkpt lat="46.00562" lon="6.4298">
        <ele>1381</ele>
        <time>2008-12-22T13:28:43Z</time>
      </trkpt>
      <trkpt lat="46.0055" lon="6.42952">
        <ele>1370</ele>
        <time>2008-12-22T13:28:55Z</time>
      </trkpt>
      <trkpt lat="46.00532" lon="6.42933">
        <ele>1362</ele>
        <time>2008-12-22T13:29:03Z</time>
      </trkpt>
      <trkpt lat="46.00533" lon="6.42903">
        <ele>1359</ele>
        <time>2008-12-22T13:29:09Z</time>
      </trkpt>
      <trkpt lat="46.00535" lon="6.42873">
        <ele>1354</ele>
        <time>2008-12-22T13:29:15Z</time>
      </trkpt>
      <trkpt lat="46.00518" lon="6.4289">
        <ele>1349</ele>
        <time>2008-12-22T13:29:23Z</time>
      </trkpt>
      <trkpt lat="46.00518" lon="6.42857">
        <ele>1344</ele>
        <time>2008-12-22T13:29:38Z</time>
      </trkpt>
      <trkpt lat="46.00503" lon="6.42833">
        <ele>1342</ele>
        <time>2008-12-22T13:29:52Z</time>
      </trkpt>
      <trkpt lat="46.00485" lon="6.42837">
        <ele>1339</ele>
        <time>2008-12-22T13:30:00Z</time>
      </trkpt>
      <trkpt lat="46.00467" lon="6.42828">
        <ele>1331</ele>
        <time>2008-12-22T13:31:32Z</time>
      </trkpt>
      <trkpt lat="46.00452" lon="6.42803">
        <ele>1328</ele>
        <time>2008-12-22T13:31:38Z</time>
      </trkpt>
      <trkpt lat="46.00435" lon="6.42775">
        <ele>1325</ele>
        <time>2008-12-22T13:31:45Z</time>
      </trkpt>
      <trkpt lat="46.00413" lon="6.42752">
        <ele>1318</ele>
        <time>2008-12-22T13:31:51Z</time>
      </trkpt>
      <trkpt lat="46.00393" lon="6.42737">
        <ele>1313</ele>
        <time>2008-12-22T13:31:57Z</time>
      </trkpt>
      <trkpt lat="46.0037" lon="6.42723">
        <ele>1309</ele>
        <time>2008-12-22T13:32:03Z</time>
      </trkpt>
      <trkpt lat="46.00355" lon="6.42708">
        <ele>1307</ele>
        <time>2008-12-22T13:32:07Z</time>
      </trkpt>
      <trkpt lat="46.0034" lon="6.42683">
        <ele>1306</ele>
        <time>2008-12-22T13:32:13Z</time>
      </trkpt>
      <trkpt lat="46.00325" lon="6.42658">
        <ele>1302</ele>
        <time>2008-12-22T13:32:19Z</time>
      </trkpt>
      <trkpt lat="46.00312" lon="6.4264">
        <ele>1299</ele>
        <time>2008-12-22T13:32:23Z</time>
      </trkpt>
      <trkpt lat="46.00292" lon="6.42617">
        <ele>1295</ele>
        <time>2008-12-22T13:32:29Z</time>
      </trkpt>
      <trkpt lat="46.003" lon="6.42593">
        <ele>1293</ele>
        <time>2008-12-22T13:32:35Z</time>
      </trkpt>
      <trkpt lat="46.00295" lon="6.42568">
        <ele>1288</ele>
        <time>2008-12-22T13:33:20Z</time>
      </trkpt>
      <trkpt lat="46.00275" lon="6.42557">
        <ele>1285</ele>
        <time>2008-12-22T13:33:39Z</time>
      </trkpt>
      <trkpt lat="46.00255" lon="6.42545">
        <ele>1283</ele>
        <time>2008-12-22T13:33:45Z</time>
      </trkpt>
      <trkpt lat="46.00235" lon="6.42528">
        <ele>1280</ele>
        <time>2008-12-22T13:33:51Z</time>
      </trkpt>
      <trkpt lat="46.00215" lon="6.42523">
        <ele>1280</ele>
        <time>2008-12-22T13:33:55Z</time>
      </trkpt>
      <trkpt lat="46.00195" lon="6.42507">
        <ele>1278</ele>
        <time>2008-12-22T13:34:03Z</time>
      </trkpt>
      <trkpt lat="46.00185" lon="6.42473">
        <ele>1274</ele>
        <time>2008-12-22T13:34:09Z</time>
      </trkpt>
      <trkpt lat="46.00175" lon="6.4245">
        <ele>1271</ele>
        <time>2008-12-22T13:34:15Z</time>
      </trkpt>
      <trkpt lat="46.00158" lon="6.42437">
        <ele>1270</ele>
        <time>2008-12-22T13:34:19Z</time>
      </trkpt>
      <trkpt lat="46.0014" lon="6.4245">
        <ele>1264</ele>
        <time>2008-12-22T13:34:26Z</time>
      </trkpt>
      <trkpt lat="46.00122" lon="6.42458">
        <ele>1260</ele>
        <time>2008-12-22T13:34:30Z</time>
      </trkpt>
      <trkpt lat="46.00107" lon="6.42482">
        <ele>1256</ele>
        <time>2008-12-22T13:34:36Z</time>
      </trkpt>
      <trkpt lat="46.00083" lon="6.425">
        <ele>1253</ele>
        <time>2008-12-22T13:34:42Z</time>
      </trkpt>
      <trkpt lat="46.00065" lon="6.42532">
        <ele>1249</ele>
        <time>2008-12-22T13:34:46Z</time>
      </trkpt>
      <trkpt lat="46.00052" lon="6.42557">
        <ele>1246</ele>
        <time>2008-12-22T13:34:50Z</time>
      </trkpt>
      <trkpt lat="46.00043" lon="6.42582">
        <ele>1244</ele>
        <time>2008-12-22T13:34:54Z</time>
      </trkpt>
      <trkpt lat="46.00018" lon="6.42597">
        <ele>1241</ele>
        <time>2008-12-22T13:35:00Z</time>
      </trkpt>
      <trkpt lat="45.99992" lon="6.42608">
        <ele>1238</ele>
        <time>2008-12-22T13:35:06Z</time>
      </trkpt>
      <trkpt lat="45.99973" lon="6.42615">
        <ele>1238</ele>
        <time>2008-12-22T13:35:11Z</time>
      </trkpt>
      <trkpt lat="45.99952" lon="6.42622">
        <ele>1236</ele>
        <time>2008-12-22T13:35:15Z</time>
      </trkpt>
      <trkpt lat="45.99933" lon="6.42642">
        <ele>1235</ele>
        <time>2008-12-22T13:35:21Z</time>
      </trkpt>
      <trkpt lat="45.9991" lon="6.42632">
        <ele>1231</ele>
        <time>2008-12-22T13:35:27Z</time>
      </trkpt>
      <trkpt lat="45.99887" lon="6.42625">
        <ele>1229</ele>
        <time>2008-12-22T13:35:31Z</time>
      </trkpt>
      <trkpt lat="45.99902" lon="6.42605">
        <ele>1222</ele>
        <time>2008-12-22T13:35:45Z</time>
      </trkpt>
      <trkpt lat="45.99923" lon="6.426">
        <ele>1219</ele>
        <time>2008-12-22T13:35:51Z</time>
      </trkpt>
      <trkpt lat="45.99902" lon="6.42585">
        <ele>1217</ele>
        <time>2008-12-22T13:35:59Z</time>
      </trkpt>
      <trkpt lat="45.9988" lon="6.42565">
        <ele>1214</ele>
        <time>2008-12-22T13:36:06Z</time>
      </trkpt>
      <trkpt lat="45.9986" lon="6.42557">
        <ele>1212</ele>
        <time>2008-12-22T13:36:10Z</time>
      </trkpt>
      <trkpt lat="45.99882" lon="6.42547">
        <ele>1203</ele>
        <time>2008-12-22T13:36:20Z</time>
      </trkpt>
      <trkpt lat="45.99908" lon="6.42548">
        <ele>1195</ele>
        <time>2008-12-22T13:36:26Z</time>
      </trkpt>
      <trkpt lat="45.99927" lon="6.4255">
        <ele>1191</ele>
        <time>2008-12-22T13:36:30Z</time>
      </trkpt>
      <trkpt lat="45.9995" lon="6.42545">
        <ele>1188</ele>
        <time>2008-12-22T13:36:34Z</time>
      </trkpt>
      <trkpt lat="45.99958" lon="6.4252">
        <ele>1189</ele>
        <time>2008-12-22T13:36:38Z</time>
      </trkpt>
      <trkpt lat="45.99935" lon="6.42517">
        <ele>1191</ele>
        <time>2008-12-22T13:36:44Z</time>
      </trkpt>
      <trkpt lat="45.9991" lon="6.42507">
        <ele>1188</ele>
        <time>2008-12-22T13:36:51Z</time>
      </trkpt>
      <trkpt lat="45.99885" lon="6.42495">
        <ele>1185</ele>
        <time>2008-12-22T13:36:57Z</time>
      </trkpt>
      <trkpt lat="45.99867" lon="6.42482">
        <ele>1184</ele>
        <time>2008-12-22T13:37:01Z</time>
      </trkpt>
      <trkpt lat="45.9984" lon="6.42472">
        <ele>1182</ele>
        <time>2008-12-22T13:37:05Z</time>
      </trkpt>
      <trkpt lat="45.9987" lon="6.42453">
        <ele>1177</ele>
        <time>2008-12-22T13:38:59Z</time>
      </trkpt>
    </trkseg>
  </trk>
</gpx>